createdAt,value
2024-05-09T00:05:17.485Z,1013.9
2024-05-09T00:15:17.443Z,1013.8
2024-05-09T00:25:17.410Z,1013.8
2024-05-09T00:35:17.416Z,1013.8
2024-05-09T00:45:17.428Z,1013.7
2024-05-09T00:55:17.279Z,1013.7
2024-05-09T01:05:17.248Z,1013.7
2024-05-09T01:15:17.211Z,1013.8
2024-05-09T01:25:17.202Z,1013.7
2024-05-09T01:35:17.145Z,1013.7
2024-05-09T01:45:17.099Z,1013.7
2024-05-09T01:55:17.071Z,1013.6
2024-05-09T02:05:17.046Z,1013.6
2024-05-09T02:15:17.019Z,1013.5
2024-05-09T02:25:16.958Z,1013.5
2024-05-09T02:35:16.908Z,1013.6
2024-05-09T02:45:16.882Z,1013.5
2024-05-09T02:55:16.870Z,1013.5
2024-05-09T03:05:16.817Z,1013.5
2024-05-09T03:15:16.786Z,1013.4
2024-05-09T03:25:16.738Z,1013.4
2024-05-09T03:35:16.734Z,1013.4
2024-05-09T03:45:16.693Z,1013.4
2024-05-09T03:55:16.642Z,1013.4
2024-05-09T04:05:16.605Z,1013.5
2024-05-09T04:15:16.611Z,1013.5
2024-05-09T04:25:16.552Z,1013.5
2024-05-09T04:35:16.492Z,1013.6
2024-05-09T04:45:16.470Z,1013.6
2024-05-09T04:55:16.436Z,1013.6
2024-05-09T05:05:16.402Z,1013.6
2024-05-09T05:15:16.349Z,1013.6
2024-05-09T05:25:16.352Z,1013.7
2024-05-09T05:35:16.317Z,1013.7
2024-05-09T05:45:16.258Z,1013.7
2024-05-09T05:55:16.236Z,1013.8
2024-05-09T06:05:17.087Z,1013.9
2024-05-09T06:15:16.185Z,1013.9
2024-05-09T06:25:16.186Z,1013.9
2024-05-09T06:35:16.078Z,1013.8
2024-05-09T06:45:16.048Z,1013.8
2024-05-09T06:55:16.036Z,1013.8
2024-05-09T07:05:15.993Z,1013.9
2024-05-09T07:15:16.036Z,1013.9
2024-05-09T07:25:15.936Z,1014
2024-05-09T07:35:15.873Z,1013.9
2024-05-09T07:45:15.828Z,1013.9
2024-05-09T07:55:15.836Z,1013.8
2024-05-09T08:05:15.788Z,1013.8
2024-05-09T08:15:15.720Z,1013.8
2024-05-09T08:25:15.714Z,1013.8
2024-05-09T08:35:15.711Z,1013.7
2024-05-09T08:45:15.867Z,1013.7
2024-05-09T08:55:15.587Z,1013.7
2024-05-09T09:05:15.545Z,1013.6
2024-05-09T09:15:15.491Z,1013.6
2024-05-09T09:25:15.468Z,1013.5
2024-05-09T09:35:15.447Z,1013.5
2024-05-09T09:45:15.402Z,1013.4
2024-05-09T09:55:15.350Z,1013.3
2024-05-09T10:05:15.306Z,1013.2
2024-05-09T10:15:15.276Z,1013.1
2024-05-09T10:25:15.343Z,1013.1
2024-05-09T10:35:15.397Z,1013.1
2024-05-09T10:45:15.153Z,1013
2024-05-09T10:55:16.203Z,1012.9
2024-05-09T11:05:15.131Z,1012.8
2024-05-09T11:15:15.087Z,1012.7
2024-05-09T11:25:15.001Z,1012.7
2024-05-09T11:35:14.973Z,1012.6
2024-05-09T11:45:14.923Z,1012.4
2024-05-09T11:55:14.892Z,1012.3
2024-05-09T12:05:14.869Z,1012.2
2024-05-09T12:15:14.810Z,1012.2
2024-05-09T12:25:14.764Z,1012.1
2024-05-09T12:35:14.743Z,1012
2024-05-09T12:45:14.693Z,1012
2024-05-09T12:55:14.699Z,1011.9
2024-05-09T13:05:14.632Z,1011.8
2024-05-09T13:15:14.572Z,1011.7
2024-05-09T13:25:14.540Z,1011.6
2024-05-09T13:35:14.535Z,1011.5
2024-05-09T13:45:14.456Z,1011.4
2024-05-09T13:55:14.532Z,1011.3
2024-05-09T14:05:14.400Z,1011.1
2024-05-09T14:15:14.331Z,1011
2024-05-09T14:25:14.299Z,1011
2024-05-09T14:35:14.290Z,1010.9
2024-05-09T14:45:14.223Z,1010.9
2024-05-09T14:55:14.190Z,1010.8
2024-05-09T15:05:14.176Z,1010.7
2024-05-09T15:15:14.093Z,1010.6
2024-05-09T15:25:14.059Z,1010.6
2024-05-09T15:35:14.030Z,1010.4
2024-05-09T15:45:14.938Z,1010.3
2024-05-09T15:55:14.002Z,1010.3
2024-05-09T16:05:13.924Z,1010.3
2024-05-09T16:15:13.865Z,1010.2
2024-05-09T16:25:13.840Z,1010.2
2024-05-09T16:35:13.796Z,1010.1
2024-05-09T16:45:13.766Z,1010.1
2024-05-09T16:55:13.718Z,1010
2024-05-09T17:05:13.681Z,1010
2024-05-09T17:15:13.650Z,1010
2024-05-09T17:25:13.604Z,1010.1
2024-05-09T17:35:13.555Z,1010
2024-05-09T17:45:13.512Z,1010
2024-05-09T17:55:13.494Z,1010
2024-05-09T18:05:13.493Z,1010
2024-05-09T18:15:13.407Z,1010
2024-05-09T18:25:13.374Z,1010
2024-05-09T18:45:13.268Z,1010.1
2024-05-09T18:55:13.251Z,1010.2
2024-05-09T19:05:13.211Z,1010.2
2024-05-09T19:15:13.153Z,1010.3
2024-05-09T19:25:13.117Z,1010.4
2024-05-09T19:35:13.175Z,1010.4
2024-05-09T19:45:13.048Z,1010.5
2024-05-09T19:55:13.013Z,1010.5
2024-05-09T20:05:12.968Z,1010.6
2024-05-09T20:15:12.952Z,1010.6
2024-05-09T20:25:12.978Z,1010.6
2024-05-09T20:35:12.831Z,1010.6
2024-05-09T20:55:12.773Z,1010.7
2024-05-09T21:05:12.738Z,1010.6
2024-05-09T21:15:12.876Z,1010.6
2024-05-09T21:25:12.649Z,1010.6
2024-05-09T21:35:12.622Z,1010.6
2024-05-09T21:45:12.584Z,1010.7
2024-05-09T21:55:12.552Z,1010.6
2024-05-09T22:05:12.523Z,1010.6
2024-05-09T22:15:12.561Z,1010.6
2024-05-09T22:25:12.443Z,1010.5
2024-05-09T22:35:12.564Z,1010.5
2024-05-09T22:45:12.364Z,1010.5
2024-05-09T22:55:12.412Z,1010.5
2024-05-09T23:05:12.303Z,1010.5
2024-05-09T23:15:12.272Z,1010.5
2024-05-09T23:25:12.217Z,1010.4
2024-05-09T23:35:12.183Z,1010.4
2024-05-09T23:45:12.137Z,1010.3
2024-05-09T23:55:12.106Z,1010.2
